sensor_id;sensor_type;location;lat;lon;timestamp;P1;durP1;ratioP1;P2;durP2;ratioP2
7939;SDS011;4015;48.888;9.226;2023-06-19T00:01:12;6.63;;;5.88;;
7939;SDS011;4015;48.888;9.226;2023-06-19T00:03:37;8.13;;;6.65;;
7939;SDS011;4015;48.888;9.226;2023-06-19T00:06:02;6.78;;;5.95;;
7939;SDS011;4015;48.888;9.226;2023-06-19T00:08:28;7.45;;;6.75;;
7939;SDS011;4015;48.888;9.226;2023-06-19T00:10:54;6.70;;;6.07;;
7939;SDS011;4015;48.888;9.226;2023-06-19T00:13:19;7.57;;;6.78;;
7939;SDS011;4015;48.888;9.226;2023-06-19T00:15:45;7.50;;;6.80;;
7939;SDS011;4015;48.888;9.226;2023-06-19T00:18:10;7.60;;;6.53;;
7939;SDS011;4015;48.888;9.226;2023-06-19T00:20:36;6.72;;;6.13;;
7939;SDS011;4015;48.888;9.226;2023-06-19T00:23:01;14.68;;;7.35;;
7939;SDS011;4015;48.888;9.226;2023-06-19T00:25:26;6.68;;;6.07;;
7939;SDS011;4015;48.888;9.226;2023-06-19T00:27:52;7.88;;;6.35;;
7939;SDS011;4015;48.888;9.226;2023-06-19T00:30:17;6.78;;;6.07;;
7939;SDS011;4015;48.888;9.226;2023-06-19T00:32:42;8.30;;;6.35;;
7939;SDS011;4015;48.888;9.226;2023-06-19T00:35:14;5.90;;;5.40;;
7939;SDS011;4015;48.888;9.226;2023-06-19T00:37:47;6.32;;;5.75;;
7939;SDS011;4015;48.888;9.226;2023-06-19T00:40:14;6.38;;;5.78;;
7939;SDS011;4015;48.888;9.226;2023-06-19T00:42:51;14.35;;;5.88;;
7939;SDS011;4015;48.888;9.226;2023-06-19T00:45:16;6.65;;;5.60;;
7939;SDS011;4015;48.888;9.226;2023-06-19T00:47:41;9.02;;;5.97;;
7939;SDS011;4015;48.888;9.226;2023-06-19T00:50:07;7.45;;;5.80;;
7939;SDS011;4015;48.888;9.226;2023-06-19T00:52:33;7.57;;;5.88;;
7939;SDS011;4015;48.888;9.226;2023-06-19T00:54:59;8.27;;;6.20;;
7939;SDS011;4015;48.888;9.226;2023-06-19T00:57:24;6.82;;;6.13;;
7939;SDS011;4015;48.888;9.226;2023-06-19T00:59:50;6.78;;;6.05;;
7939;SDS011;4015;48.888;9.226;2023-06-19T01:02:16;6.57;;;5.97;;
7939;SDS011;4015;48.888;9.226;2023-06-19T01:04:42;6.75;;;6.15;;
7939;SDS011;4015;48.888;9.226;2023-06-19T01:07:10;6.80;;;5.47;;
7939;SDS011;4015;48.888;9.226;2023-06-19T01:09:44;6.30;;;5.80;;
7939;SDS011;4015;48.888;9.226;2023-06-19T01:12:15;6.95;;;6.25;;
7939;SDS011;4015;48.888;9.226;2023-06-19T01:15:03;8.20;;;5.80;;
7939;SDS011;4015;48.888;9.226;2023-06-19T01:17:30;5.40;;;4.90;;
7939;SDS011;4015;48.888;9.226;2023-06-19T01:19:58;6.32;;;5.65;;
7939;SDS011;4015;48.888;9.226;2023-06-19T01:24:56;5.85;;;5.32;;
7939;SDS011;4015;48.888;9.226;2023-06-19T01:27:24;9.13;;;4.85;;
7939;SDS011;4015;48.888;9.226;2023-06-19T01:29:54;5.80;;;4.30;;
7939;SDS011;4015;48.888;9.226;2023-06-19T01:32:22;7.20;;;4.47;;
7939;SDS011;4015;48.888;9.226;2023-06-19T01:34:56;6.32;;;4.75;;
7939;SDS011;4015;48.888;9.226;2023-06-19T01:37:23;4.93;;;4.40;;
7939;SDS011;4015;48.888;9.226;2023-06-19T01:39:54;7.40;;;4.00;;
7939;SDS011;4015;48.888;9.226;2023-06-19T01:42:21;4.63;;;4.20;;
7939;SDS011;4015;48.888;9.226;2023-06-19T01:44:47;5.78;;;3.92;;
7939;SDS011;4015;48.888;9.226;2023-06-19T01:47:14;4.88;;;3.97;;
7939;SDS011;4015;48.888;9.226;2023-06-19T01:49:44;8.27;;;3.65;;
7939;SDS011;4015;48.888;9.226;2023-06-19T01:52:10;4.68;;;3.00;;
7939;SDS011;4015;48.888;9.226;2023-06-19T01:54:35;5.45;;;3.40;;
7939;SDS011;4015;48.888;9.226;2023-06-19T01:57:01;3.30;;;2.90;;
7939;SDS011;4015;48.888;9.226;2023-06-19T01:59:26;3.88;;;3.47;;
7939;SDS011;4015;48.888;9.226;2023-06-19T02:01:51;6.05;;;3.25;;
7939;SDS011;4015;48.888;9.226;2023-06-19T02:04:17;4.28;;;3.35;;
7939;SDS011;4015;48.888;9.226;2023-06-19T02:06:42;2.92;;;2.72;;
7939;SDS011;4015;48.888;9.226;2023-06-19T02:09:07;4.40;;;3.13;;
7939;SDS011;4015;48.888;9.226;2023-06-19T02:11:33;3.42;;;2.75;;
7939;SDS011;4015;48.888;9.226;2023-06-19T02:13:58;4.05;;;3.40;;
7939;SDS011;4015;48.888;9.226;2023-06-19T02:16:23;4.00;;;3.60;;
7939;SDS011;4015;48.888;9.226;2023-06-19T02:18:49;4.93;;;3.17;;
7939;SDS011;4015;48.888;9.226;2023-06-19T02:21:14;4.18;;;3.70;;
7939;SDS011;4015;48.888;9.226;2023-06-19T02:23:40;3.90;;;3.50;;
7939;SDS011;4015;48.888;9.226;2023-06-19T02:26:05;4.03;;;3.30;;
7939;SDS011;4015;48.888;9.226;2023-06-19T02:28:30;3.65;;;3.35;;
7939;SDS011;4015;48.888;9.226;2023-06-19T02:30:55;4.45;;;3.80;;
7939;SDS011;4015;48.888;9.226;2023-06-19T02:33:21;6.47;;;3.53;;
7939;SDS011;4015;48.888;9.226;2023-06-19T02:35:46;3.92;;;3.55;;
7939;SDS011;4015;48.888;9.226;2023-06-19T02:38:12;4.03;;;3.30;;
7939;SDS011;4015;48.888;9.226;2023-06-19T02:40:37;8.10;;;4.05;;
7939;SDS011;4015;48.888;9.226;2023-06-19T02:43:04;3.85;;;3.42;;
7939;SDS011;4015;48.888;9.226;2023-06-19T02:45:29;3.40;;;3.10;;
7939;SDS011;4015;48.888;9.226;2023-06-19T02:47:54;5.55;;;4.22;;
7939;SDS011;4015;48.888;9.226;2023-06-19T02:50:20;5.40;;;3.63;;
7939;SDS011;4015;48.888;9.226;2023-06-19T02:52:45;6.28;;;4.03;;
7939;SDS011;4015;48.888;9.226;2023-06-19T02:55:10;3.47;;;3.17;;
7939;SDS011;4015;48.888;9.226;2023-06-19T02:57:36;5.05;;;3.72;;
7939;SDS011;4015;48.888;9.226;2023-06-19T03:00:01;4.07;;;3.30;;
7939;SDS011;4015;48.888;9.226;2023-06-19T03:02:28;5.80;;;3.63;;
7939;SDS011;4015;48.888;9.226;2023-06-19T03:04:53;4.25;;;3.10;;
7939;SDS011;4015;48.888;9.226;2023-06-19T03:07:18;6.47;;;3.30;;
7939;SDS011;4015;48.888;9.226;2023-06-19T03:09:44;3.63;;;3.00;;
7939;SDS011;4015;48.888;9.226;2023-06-19T03:12:09;4.95;;;3.83;;
7939;SDS011;4015;48.888;9.226;2023-06-19T03:14:35;3.53;;;2.65;;
7939;SDS011;4015;48.888;9.226;2023-06-19T03:17:00;4.07;;;2.78;;
7939;SDS011;4015;48.888;9.226;2023-06-19T03:19:25;5.20;;;3.30;;
7939;SDS011;4015;48.888;9.226;2023-06-19T03:21:51;3.53;;;3.22;;
7939;SDS011;4015;48.888;9.226;2023-06-19T03:24:16;4.13;;;3.38;;
7939;SDS011;4015;48.888;9.226;2023-06-19T03:26:41;4.95;;;3.28;;
7939;SDS011;4015;48.888;9.226;2023-06-19T03:29:07;4.35;;;3.20;;
7939;SDS011;4015;48.888;9.226;2023-06-19T03:31:32;6.60;;;3.97;;
7939;SDS011;4015;48.888;9.226;2023-06-19T03:33:57;3.65;;;3.25;;
7939;SDS011;4015;48.888;9.226;2023-06-19T03:36:23;6.72;;;3.45;;
7939;SDS011;4015;48.888;9.226;2023-06-19T03:38:48;3.50;;;3.20;;
7939;SDS011;4015;48.888;9.226;2023-06-19T03:41:14;4.20;;;3.60;;
7939;SDS011;4015;48.888;9.226;2023-06-19T03:43:39;4.75;;;3.58;;
7939;SDS011;4015;48.888;9.226;2023-06-19T03:46:05;3.85;;;3.05;;
7939;SDS011;4015;48.888;9.226;2023-06-19T03:48:30;8.55;;;4.00;;
7939;SDS011;4015;48.888;9.226;2023-06-19T03:50:55;5.20;;;3.83;;
7939;SDS011;4015;48.888;9.226;2023-06-19T03:53:21;4.38;;;3.90;;
7939;SDS011;4015;48.888;9.226;2023-06-19T03:55:46;5.70;;;3.58;;
7939;SDS011;4015;48.888;9.226;2023-06-19T03:58:12;4.70;;;4.00;;
7939;SDS011;4015;48.888;9.226;2023-06-19T04:00:37;5.10;;;3.50;;
7939;SDS011;4015;48.888;9.226;2023-06-19T04:03:02;7.80;;;3.75;;
7939;SDS011;4015;48.888;9.226;2023-06-19T04:05:28;4.72;;;3.88;;
7939;SDS011;4015;48.888;9.226;2023-06-19T04:07:53;4.90;;;3.35;;
7939;SDS011;4015;48.888;9.226;2023-06-19T04:10:18;4.20;;;3.30;;
7939;SDS011;4015;48.888;9.226;2023-06-19T04:12:44;4.95;;;3.60;;
7939;SDS011;4015;48.888;9.226;2023-06-19T04:15:10;4.70;;;3.10;;
7939;SDS011;4015;48.888;9.226;2023-06-19T04:17:35;5.53;;;3.53;;
7939;SDS011;4015;48.888;9.226;2023-06-19T04:20:01;4.80;;;3.50;;
7939;SDS011;4015;48.888;9.226;2023-06-19T04:22:29;4.38;;;2.90;;
7939;SDS011;4015;48.888;9.226;2023-06-19T04:24:54;3.38;;;3.00;;
7939;SDS011;4015;48.888;9.226;2023-06-19T04:27:20;5.53;;;2.92;;
7939;SDS011;4015;48.888;9.226;2023-06-19T04:29:45;5.20;;;2.40;;
7939;SDS011;4015;48.888;9.226;2023-06-19T04:32:10;4.45;;;2.75;;
7939;SDS011;4015;48.888;9.226;2023-06-19T04:34:40;4.22;;;2.33;;
7939;SDS011;4015;48.888;9.226;2023-06-19T04:37:11;2.45;;;2.25;;
7939;SDS011;4015;48.888;9.226;2023-06-19T04:39:36;2.35;;;2.10;;
7939;SDS011;4015;48.888;9.226;2023-06-19T04:42:02;2.33;;;2.08;;
7939;SDS011;4015;48.888;9.226;2023-06-19T04:44:27;2.95;;;2.15;;
7939;SDS011;4015;48.888;9.226;2023-06-19T04:46:55;2.88;;;2.10;;
7939;SDS011;4015;48.888;9.226;2023-06-19T04:49:26;2.97;;;2.33;;
7939;SDS011;4015;48.888;9.226;2023-06-19T04:51:54;3.50;;;2.30;;
7939;SDS011;4015;48.888;9.226;2023-06-19T04:54:20;3.50;;;1.90;;
7939;SDS011;4015;48.888;9.226;2023-06-19T04:56:45;3.88;;;2.83;;
7939;SDS011;4015;48.888;9.226;2023-06-19T04:59:11;3.22;;;2.67;;
7939;SDS011;4015;48.888;9.226;2023-06-19T05:01:36;2.30;;;2.10;;
7939;SDS011;4015;48.888;9.226;2023-06-19T05:04:05;3.35;;;2.65;;
7939;SDS011;4015;48.888;9.226;2023-06-19T05:06:30;2.17;;;1.98;;
7939;SDS011;4015;48.888;9.226;2023-06-19T05:08:56;2.40;;;2.20;;
7939;SDS011;4015;48.888;9.226;2023-06-19T05:11:21;3.60;;;2.28;;
7939;SDS011;4015;48.888;9.226;2023-06-19T05:13:46;2.15;;;1.95;;
7939;SDS011;4015;48.888;9.226;2023-06-19T05:16:12;3.17;;;2.05;;
7939;SDS011;4015;48.888;9.226;2023-06-19T05:18:41;3.60;;;2.13;;
7939;SDS011;4015;48.888;9.226;2023-06-19T05:21:06;6.50;;;2.35;;
7939;SDS011;4015;48.888;9.226;2023-06-19T05:23:32;7.15;;;6.45;;
7939;SDS011;4015;48.888;9.226;2023-06-19T05:25:57;4.40;;;2.50;;
7939;SDS011;4015;48.888;9.226;2023-06-19T05:28:22;3.28;;;2.50;;
7939;SDS011;4015;48.888;9.226;2023-06-19T05:30:47;7.10;;;2.20;;
7939;SDS011;4015;48.888;9.226;2023-06-19T05:33:15;3.15;;;2.13;;
7939;SDS011;4015;48.888;9.226;2023-06-19T05:35:41;4.85;;;3.05;;
7939;SDS011;4015;48.888;9.226;2023-06-19T05:38:07;2.92;;;2.42;;
7939;SDS011;4015;48.888;9.226;2023-06-19T05:40:32;2.75;;;2.50;;
7939;SDS011;4015;48.888;9.226;2023-06-19T05:42:58;2.85;;;2.33;;
7939;SDS011;4015;48.888;9.226;2023-06-19T05:45:23;3.25;;;2.53;;
7939;SDS011;4015;48.888;9.226;2023-06-19T05:47:48;2.67;;;2.30;;
7939;SDS011;4015;48.888;9.226;2023-06-19T05:50:13;5.05;;;2.55;;
7939;SDS011;4015;48.888;9.226;2023-06-19T05:52:39;3.80;;;2.88;;
7939;SDS011;4015;48.888;9.226;2023-06-19T05:55:08;2.78;;;2.50;;
7939;SDS011;4015;48.888;9.226;2023-06-19T05:57:34;2.88;;;2.53;;
7939;SDS011;4015;48.888;9.226;2023-06-19T05:59:59;4.53;;;2.63;;
7939;SDS011;4015;48.888;9.226;2023-06-19T06:02:25;4.30;;;2.80;;
7939;SDS011;4015;48.888;9.226;2023-06-19T06:04:50;4.45;;;2.67;;
7939;SDS011;4015;48.888;9.226;2023-06-19T06:07:16;4.10;;;2.60;;
7939;SDS011;4015;48.888;9.226;2023-06-19T06:09:41;4.35;;;2.97;;
7939;SDS011;4015;48.888;9.226;2023-06-19T06:12:07;5.05;;;2.60;;
7939;SDS011;4015;48.888;9.226;2023-06-19T06:14:33;2.63;;;2.30;;
7939;SDS011;4015;48.888;9.226;2023-06-19T06:16:58;3.92;;;2.35;;
7939;SDS011;4015;48.888;9.226;2023-06-19T06:19:23;3.10;;;2.80;;
7939;SDS011;4015;48.888;9.226;2023-06-19T06:21:49;5.00;;;2.55;;
7939;SDS011;4015;48.888;9.226;2023-06-19T06:24:14;2.55;;;2.25;;
7939;SDS011;4015;48.888;9.226;2023-06-19T06:26:40;2.55;;;2.25;;
7939;SDS011;4015;48.888;9.226;2023-06-19T06:29:06;5.60;;;2.67;;
7939;SDS011;4015;48.888;9.226;2023-06-19T06:31:32;4.25;;;2.53;;
7939;SDS011;4015;48.888;9.226;2023-06-19T06:33:57;6.75;;;2.80;;
7939;SDS011;4015;48.888;9.226;2023-06-19T06:36:22;3.63;;;2.70;;
7939;SDS011;4015;48.888;9.226;2023-06-19T06:38:49;6.63;;;5.05;;
7939;SDS011;4015;48.888;9.226;2023-06-19T06:41:15;3.30;;;2.95;;
7939;SDS011;4015;48.888;9.226;2023-06-19T06:43:40;2.85;;;2.42;;
7939;SDS011;4015;48.888;9.226;2023-06-19T06:46:07;3.80;;;2.92;;
7939;SDS011;4015;48.888;9.226;2023-06-19T06:48:33;3.25;;;2.67;;
7939;SDS011;4015;48.888;9.226;2023-06-19T06:50:59;4.63;;;2.40;;
7939;SDS011;4015;48.888;9.226;2023-06-19T06:53:26;4.07;;;2.50;;
7939;SDS011;4015;48.888;9.226;2023-06-19T06:55:57;3.25;;;2.20;;
7939;SDS011;4015;48.888;9.226;2023-06-19T06:58:22;2.85;;;2.65;;
7939;SDS011;4015;48.888;9.226;2023-06-19T07:00:48;2.70;;;2.08;;
7939;SDS011;4015;48.888;9.226;2023-06-19T07:03:15;2.58;;;2.38;;
7939;SDS011;4015;48.888;9.226;2023-06-19T07:05:41;4.28;;;3.88;;
7939;SDS011;4015;48.888;9.226;2023-06-19T07:08:06;4.63;;;2.33;;
7939;SDS011;4015;48.888;9.226;2023-06-19T07:10:31;2.88;;;2.20;;
7939;SDS011;4015;48.888;9.226;2023-06-19T07:12:57;1.98;;;1.80;;
7939;SDS011;4015;48.888;9.226;2023-06-19T07:15:22;2.78;;;2.00;;
7939;SDS011;4015;48.888;9.226;2023-06-19T07:17:47;2.30;;;2.10;;
7939;SDS011;4015;48.888;9.226;2023-06-19T07:20:13;1.88;;;1.75;;
7939;SDS011;4015;48.888;9.226;2023-06-19T07:22:39;2.20;;;2.00;;
7939;SDS011;4015;48.888;9.226;2023-06-19T07:25:05;2.03;;;1.90;;
7939;SDS011;4015;48.888;9.226;2023-06-19T07:27:31;1.95;;;1.75;;
7939;SDS011;4015;48.888;9.226;2023-06-19T07:29:56;4.40;;;1.90;;
7939;SDS011;4015;48.888;9.226;2023-06-19T07:32:21;3.22;;;1.98;;
7939;SDS011;4015;48.888;9.226;2023-06-19T07:34:47;1.90;;;1.80;;
7939;SDS011;4015;48.888;9.226;2023-06-19T07:37:12;2.22;;;1.83;;
7939;SDS011;4015;48.888;9.226;2023-06-19T07:39:43;3.22;;;1.75;;
7939;SDS011;4015;48.888;9.226;2023-06-19T07:42:09;2.10;;;1.77;;
7939;SDS011;4015;48.888;9.226;2023-06-19T07:44:35;1.92;;;1.60;;
7939;SDS011;4015;48.888;9.226;2023-06-19T07:47:01;1.77;;;1.60;;
7939;SDS011;4015;48.888;9.226;2023-06-19T07:49:26;1.95;;;1.80;;
7939;SDS011;4015;48.888;9.226;2023-06-19T07:51:51;2.20;;;2.00;;
7939;SDS011;4015;48.888;9.226;2023-06-19T07:54:17;2.47;;;1.75;;
7939;SDS011;4015;48.888;9.226;2023-06-19T07:56:42;1.85;;;1.65;;
7939;SDS011;4015;48.888;9.226;2023-06-19T07:59:07;3.10;;;2.03;;
7939;SDS011;4015;48.888;9.226;2023-06-19T08:01:32;2.03;;;1.77;;
7939;SDS011;4015;48.888;9.226;2023-06-19T08:03:58;2.53;;;1.80;;
7939;SDS011;4015;48.888;9.226;2023-06-19T08:06:23;1.55;;;1.45;;
7939;SDS011;4015;48.888;9.226;2023-06-19T08:08:48;1.90;;;1.80;;
7939;SDS011;4015;48.888;9.226;2023-06-19T08:11:14;2.88;;;2.08;;
7939;SDS011;4015;48.888;9.226;2023-06-19T08:13:39;2.30;;;1.55;;
7939;SDS011;4015;48.888;9.226;2023-06-19T08:16:05;3.25;;;1.73;;
7939;SDS011;4015;48.888;9.226;2023-06-19T08:18:31;4.45;;;1.80;;
7939;SDS011;4015;48.888;9.226;2023-06-19T08:20:57;2.08;;;1.60;;
7939;SDS011;4015;48.888;9.226;2023-06-19T08:23:22;5.95;;;1.98;;
7939;SDS011;4015;48.888;9.226;2023-06-19T08:25:47;3.75;;;2.13;;
7939;SDS011;4015;48.888;9.226;2023-06-19T08:28:13;1.92;;;1.73;;
7939;SDS011;4015;48.888;9.226;2023-06-19T08:30:38;2.20;;;2.00;;
7939;SDS011;4015;48.888;9.226;2023-06-19T08:33:03;4.00;;;1.90;;
7939;SDS011;4015;48.888;9.226;2023-06-19T08:35:28;1.88;;;1.70;;
7939;SDS011;4015;48.888;9.226;2023-06-19T08:37:54;2.10;;;1.90;;
7939;SDS011;4015;48.888;9.226;2023-06-19T08:40:19;2.03;;;1.65;;
7939;SDS011;4015;48.888;9.226;2023-06-19T08:42:45;5.32;;;1.85;;
7939;SDS011;4015;48.888;9.226;2023-06-19T08:45:10;1.45;;;1.27;;
7939;SDS011;4015;48.888;9.226;2023-06-19T08:47:35;2.00;;;1.52;;
7939;SDS011;4015;48.888;9.226;2023-06-19T08:50:01;1.63;;;1.52;;
7939;SDS011;4015;48.888;9.226;2023-06-19T08:52:26;2.10;;;1.90;;
7939;SDS011;4015;48.888;9.226;2023-06-19T08:54:52;2.10;;;1.95;;
7939;SDS011;4015;48.888;9.226;2023-06-19T08:57:17;1.83;;;1.50;;
7939;SDS011;4015;48.888;9.226;2023-06-19T08:59:49;1.83;;;1.73;;
7939;SDS011;4015;48.888;9.226;2023-06-19T09:02:16;1.73;;;1.63;;
7939;SDS011;4015;48.888;9.226;2023-06-19T09:04:41;1.73;;;1.63;;
7939;SDS011;4015;48.888;9.226;2023-06-19T09:07:07;1.75;;;1.65;;
7939;SDS011;4015;48.888;9.226;2023-06-19T09:09:33;2.22;;;1.92;;
7939;SDS011;4015;48.888;9.226;2023-06-19T09:12:03;2.38;;;1.75;;
7939;SDS011;4015;48.888;9.226;2023-06-19T09:16:59;2.63;;;1.70;;
7939;SDS011;4015;48.888;9.226;2023-06-19T09:19:25;2.05;;;1.85;;
7939;SDS011;4015;48.888;9.226;2023-06-19T09:21:51;2.22;;;1.85;;
7939;SDS011;4015;48.888;9.226;2023-06-19T09:24:16;1.90;;;1.80;;
7939;SDS011;4015;48.888;9.226;2023-06-19T09:26:41;1.95;;;1.83;;
7939;SDS011;4015;48.888;9.226;2023-06-19T09:29:13;2.00;;;1.83;;
7939;SDS011;4015;48.888;9.226;2023-06-19T09:31:44;2.47;;;1.98;;
7939;SDS011;4015;48.888;9.226;2023-06-19T09:34:09;1.80;;;1.70;;
7939;SDS011;4015;48.888;9.226;2023-06-19T09:36:35;2.30;;;2.10;;
7939;SDS011;4015;48.888;9.226;2023-06-19T09:39:01;2.40;;;2.20;;
7939;SDS011;4015;48.888;9.226;2023-06-19T09:41:28;1.80;;;1.70;;
7939;SDS011;4015;48.888;9.226;2023-06-19T09:43:54;3.72;;;1.60;;
7939;SDS011;4015;48.888;9.226;2023-06-19T09:46:31;2.15;;;1.95;;
7939;SDS011;4015;48.888;9.226;2023-06-19T09:49:01;1.85;;;1.75;;
7939;SDS011;4015;48.888;9.226;2023-06-19T09:51:33;4.40;;;2.22;;
7939;SDS011;4015;48.888;9.226;2023-06-19T09:54:02;2.72;;;1.98;;
7939;SDS011;4015;48.888;9.226;2023-06-19T09:56:31;4.70;;;1.90;;
7939;SDS011;4015;48.888;9.226;2023-06-19T09:58:56;2.88;;;2.13;;
7939;SDS011;4015;48.888;9.226;2023-06-19T10:01:28;3.17;;;2.38;;
7939;SDS011;4015;48.888;9.226;2023-06-19T10:04:06;3.20;;;2.15;;
7939;SDS011;4015;48.888;9.226;2023-06-19T10:06:32;3.60;;;2.10;;
7939;SDS011;4015;48.888;9.226;2023-06-19T10:09:07;2.53;;;2.33;;
7939;SDS011;4015;48.888;9.226;2023-06-19T10:11:47;1.77;;;1.67;;
7939;SDS011;4015;48.888;9.226;2023-06-19T10:14:16;2.45;;;2.25;;
7939;SDS011;4015;48.888;9.226;2023-06-19T10:16:43;3.63;;;2.30;;
7939;SDS011;4015;48.888;9.226;2023-06-19T10:19:16;2.13;;;2.00;;
7939;SDS011;4015;48.888;9.226;2023-06-19T10:21:44;2.78;;;2.40;;
7939;SDS011;4015;48.888;9.226;2023-06-19T10:24:13;3.33;;;3.08;;
7939;SDS011;4015;48.888;9.226;2023-06-19T10:26:40;2.15;;;1.90;;
7939;SDS011;4015;48.888;9.226;2023-06-19T10:29:15;4.43;;;2.17;;
7939;SDS011;4015;48.888;9.226;2023-06-19T10:31:43;3.42;;;2.10;;
7939;SDS011;4015;48.888;9.226;2023-06-19T10:34:10;3.08;;;2.25;;
7939;SDS011;4015;48.888;9.226;2023-06-19T10:36:36;5.55;;;2.47;;
7939;SDS011;4015;48.888;9.226;2023-06-19T10:39:02;2.53;;;2.33;;
7939;SDS011;4015;48.888;9.226;2023-06-19T10:41:27;2.55;;;2.25;;
7939;SDS011;4015;48.888;9.226;2023-06-19T10:43:53;2.50;;;2.30;;
7939;SDS011;4015;48.888;9.226;2023-06-19T10:46:21;4.10;;;2.25;;
7939;SDS011;4015;48.888;9.226;2023-06-19T10:48:47;2.33;;;2.13;;
7939;SDS011;4015;48.888;9.226;2023-06-19T10:51:17;2.17;;;1.95;;
7939;SDS011;4015;48.888;9.226;2023-06-19T10:53:43;2.28;;;2.00;;
7939;SDS011;4015;48.888;9.226;2023-06-19T10:56:09;2.25;;;2.05;;
7939;SDS011;4015;48.888;9.226;2023-06-19T10:58:34;2.40;;;2.20;;
7939;SDS011;4015;48.888;9.226;2023-06-19T11:00:59;2.28;;;2.08;;
7939;SDS011;4015;48.888;9.226;2023-06-19T11:03:25;2.30;;;2.10;;
7939;SDS011;4015;48.888;9.226;2023-06-19T11:05:50;2.22;;;2.03;;
7939;SDS011;4015;48.888;9.226;2023-06-19T11:08:19;2.92;;;2.17;;
7939;SDS011;4015;48.888;9.226;2023-06-19T11:10:47;3.05;;;2.80;;
7939;SDS011;4015;48.888;9.226;2023-06-19T11:13:19;3.05;;;2.40;;
7939;SDS011;4015;48.888;9.226;2023-06-19T11:15:45;2.95;;;1.88;;
7939;SDS011;4015;48.888;9.226;2023-06-19T11:18:14;4.13;;;2.40;;
7939;SDS011;4015;48.888;9.226;2023-06-19T11:20:48;2.63;;;2.20;;
7939;SDS011;4015;48.888;9.226;2023-06-19T11:23:15;2.30;;;1.88;;
7939;SDS011;4015;48.888;9.226;2023-06-19T11:25:42;2.42;;;2.22;;
7939;SDS011;4015;48.888;9.226;2023-06-19T11:28:11;2.50;;;2.30;;
7939;SDS011;4015;48.888;9.226;2023-06-19T11:30:42;2.25;;;2.10;;
7939;SDS011;4015;48.888;9.226;2023-06-19T11:33:17;2.78;;;2.58;;
7939;SDS011;4015;48.888;9.226;2023-06-19T11:35:53;2.58;;;2.38;;
7939;SDS011;4015;48.888;9.226;2023-06-19T11:38:23;2.15;;;2.03;;
7939;SDS011;4015;48.888;9.226;2023-06-19T11:40:49;2.42;;;2.22;;
7939;SDS011;4015;48.888;9.226;2023-06-19T11:43:25;2.53;;;2.17;;
7939;SDS011;4015;48.888;9.226;2023-06-19T11:46:04;2.80;;;2.28;;
7939;SDS011;4015;48.888;9.226;2023-06-19T11:48:31;2.63;;;2.42;;
7939;SDS011;4015;48.888;9.226;2023-06-19T11:50:56;2.63;;;2.42;;
7939;SDS011;4015;48.888;9.226;2023-06-19T11:53:23;2.92;;;2.63;;
7939;SDS011;4015;48.888;9.226;2023-06-19T11:55:49;4.57;;;2.13;;
7939;SDS011;4015;48.888;9.226;2023-06-19T11:58:16;2.33;;;2.13;;
7939;SDS011;4015;48.888;9.226;2023-06-19T12:00:42;3.55;;;2.22;;
7939;SDS011;4015;48.888;9.226;2023-06-19T12:03:08;5.32;;;2.22;;
7939;SDS011;4015;48.888;9.226;2023-06-19T12:05:34;2.28;;;2.08;;
7939;SDS011;4015;48.888;9.226;2023-06-19T12:08:01;2.97;;;2.60;;
7939;SDS011;4015;48.888;9.226;2023-06-19T12:10:29;2.45;;;2.25;;
7939;SDS011;4015;48.888;9.226;2023-06-19T12:12:55;3.22;;;2.50;;
7939;SDS011;4015;48.888;9.226;2023-06-19T12:15:20;4.47;;;2.28;;
7939;SDS011;4015;48.888;9.226;2023-06-19T12:17:46;2.80;;;2.30;;
7939;SDS011;4015;48.888;9.226;2023-06-19T12:20:12;3.60;;;3.20;;
7939;SDS011;4015;48.888;9.226;2023-06-19T12:22:38;2.65;;;2.45;;
7939;SDS011;4015;48.888;9.226;2023-06-19T12:25:04;2.38;;;2.17;;
7939;SDS011;4015;48.888;9.226;2023-06-19T12:27:30;2.80;;;2.60;;
7939;SDS011;4015;48.888;9.226;2023-06-19T12:29:55;2.88;;;2.60;;
7939;SDS011;4015;48.888;9.226;2023-06-19T12:32:21;2.60;;;2.40;;
7939;SDS011;4015;48.888;9.226;2023-06-19T12:34:46;2.40;;;2.20;;
7939;SDS011;4015;48.888;9.226;2023-06-19T12:37:15;2.88;;;2.67;;
7939;SDS011;4015;48.888;9.226;2023-06-19T12:39:42;4.93;;;2.90;;
7939;SDS011;4015;48.888;9.226;2023-06-19T12:42:08;2.45;;;2.25;;
7939;SDS011;4015;48.888;9.226;2023-06-19T12:44:36;2.88;;;2.67;;
7939;SDS011;4015;48.888;9.226;2023-06-19T12:47:02;2.35;;;2.25;;
7939;SDS011;4015;48.888;9.226;2023-06-19T12:49:29;2.70;;;2.50;;
7939;SDS011;4015;48.888;9.226;2023-06-19T12:51:55;2.80;;;2.38;;
7939;SDS011;4015;48.888;9.226;2023-06-19T12:54:20;2.95;;;2.65;;
7939;SDS011;4015;48.888;9.226;2023-06-19T12:56:46;2.55;;;2.35;;
7939;SDS011;4015;48.888;9.226;2023-06-19T12:59:11;2.42;;;2.22;;
7939;SDS011;4015;48.888;9.226;2023-06-19T13:01:36;2.97;;;2.40;;
7939;SDS011;4015;48.888;9.226;2023-06-19T13:04:01;2.70;;;2.50;;
7939;SDS011;4015;48.888;9.226;2023-06-19T13:06:27;3.72;;;2.90;;
7939;SDS011;4015;48.888;9.226;2023-06-19T13:08:53;3.28;;;2.40;;
7939;SDS011;4015;48.888;9.226;2023-06-19T13:11:18;2.85;;;2.65;;
7939;SDS011;4015;48.888;9.226;2023-06-19T13:13:43;2.78;;;2.55;;
7939;SDS011;4015;48.888;9.226;2023-06-19T13:16:09;2.58;;;2.38;;
7939;SDS011;4015;48.888;9.226;2023-06-19T13:18:34;4.32;;;2.40;;
7939;SDS011;4015;48.888;9.226;2023-06-19T13:21:00;4.85;;;2.70;;
7939;SDS011;4015;48.888;9.226;2023-06-19T13:23:25;2.90;;;2.70;;
7939;SDS011;4015;48.888;9.226;2023-06-19T13:25:51;2.67;;;2.47;;
7939;SDS011;4015;48.888;9.226;2023-06-19T13:28:16;3.17;;;2.38;;
7939;SDS011;4015;48.888;9.226;2023-06-19T13:30:41;3.83;;;2.53;;
7939;SDS011;4015;48.888;9.226;2023-06-19T13:33:07;2.90;;;2.58;;
7939;SDS011;4015;48.888;9.226;2023-06-19T13:35:32;6.65;;;3.35;;
7939;SDS011;4015;48.888;9.226;2023-06-19T13:37:58;2.47;;;2.22;;
7939;SDS011;4015;48.888;9.226;2023-06-19T13:40:24;2.28;;;2.08;;
7939;SDS011;4015;48.888;9.226;2023-06-19T13:42:50;2.92;;;2.72;;
7939;SDS011;4015;48.888;9.226;2023-06-19T13:45:15;3.20;;;2.75;;
7939;SDS011;4015;48.888;9.226;2023-06-19T13:47:40;3.47;;;2.30;;
7939;SDS011;4015;48.888;9.226;2023-06-19T13:50:06;2.63;;;2.42;;
7939;SDS011;4015;48.888;9.226;2023-06-19T13:52:32;2.60;;;2.33;;
7939;SDS011;4015;48.888;9.226;2023-06-19T13:54:57;3.35;;;2.25;;
7939;SDS011;4015;48.888;9.226;2023-06-19T13:57:22;3.55;;;2.40;;
7939;SDS011;4015;48.888;9.226;2023-06-19T13:59:48;2.58;;;2.38;;
7939;SDS011;4015;48.888;9.226;2023-06-19T14:02:13;5.00;;;2.60;;
7939;SDS011;4015;48.888;9.226;2023-06-19T14:04:39;3.53;;;3.22;;
7939;SDS011;4015;48.888;9.226;2023-06-19T14:07:05;4.07;;;2.55;;
7939;SDS011;4015;48.888;9.226;2023-06-19T14:09:31;6.32;;;3.03;;
7939;SDS011;4015;48.888;9.226;2023-06-19T14:11:57;2.67;;;2.47;;
7939;SDS011;4015;48.888;9.226;2023-06-19T14:14:22;2.58;;;2.35;;
7939;SDS011;4015;48.888;9.226;2023-06-19T14:16:47;2.97;;;2.78;;
7939;SDS011;4015;48.888;9.226;2023-06-19T14:19:13;3.35;;;2.55;;
7939;SDS011;4015;48.888;9.226;2023-06-19T14:21:39;2.45;;;2.22;;
7939;SDS011;4015;48.888;9.226;2023-06-19T14:24:04;3.65;;;2.25;;
7939;SDS011;4015;48.888;9.226;2023-06-19T14:26:30;2.05;;;1.95;;
7939;SDS011;4015;48.888;9.226;2023-06-19T14:28:55;2.80;;;2.50;;
7939;SDS011;4015;48.888;9.226;2023-06-19T14:31:22;5.18;;;2.47;;
7939;SDS011;4015;48.888;9.226;2023-06-19T14:33:48;2.85;;;2.65;;
7939;SDS011;4015;48.888;9.226;2023-06-19T14:36:13;3.70;;;2.40;;
7939;SDS011;4015;48.888;9.226;2023-06-19T14:38:39;3.53;;;2.45;;
7939;SDS011;4015;48.888;9.226;2023-06-19T14:41:04;3.47;;;2.90;;
7939;SDS011;4015;48.888;9.226;2023-06-19T14:43:30;3.00;;;2.80;;
7939;SDS011;4015;48.888;9.226;2023-06-19T14:45:57;3.97;;;2.60;;
7939;SDS011;4015;48.888;9.226;2023-06-19T14:48:22;2.90;;;2.70;;
7939;SDS011;4015;48.888;9.226;2023-06-19T14:50:48;4.05;;;2.50;;
7939;SDS011;4015;48.888;9.226;2023-06-19T14:53:13;3.50;;;2.80;;
7939;SDS011;4015;48.888;9.226;2023-06-19T14:55:38;2.80;;;2.60;;
7939;SDS011;4015;48.888;9.226;2023-06-19T14:58:08;2.45;;;2.25;;
7939;SDS011;4015;48.888;9.226;2023-06-19T15:00:33;2.58;;;2.38;;
7939;SDS011;4015;48.888;9.226;2023-06-19T15:03:03;3.00;;;2.78;;
7939;SDS011;4015;48.888;9.226;2023-06-19T15:05:28;2.38;;;2.22;;
7939;SDS011;4015;48.888;9.226;2023-06-19T15:07:54;3.25;;;2.38;;
7939;SDS011;4015;48.888;9.226;2023-06-19T15:10:19;2.58;;;2.38;;
7939;SDS011;4015;48.888;9.226;2023-06-19T15:12:44;2.42;;;2.28;;
7939;SDS011;4015;48.888;9.226;2023-06-19T15:15:10;3.63;;;2.67;;